createdAt,value
2022-11-24T00:00:38.708Z,7.7
2022-11-24T00:30:45.116Z,8.1
2022-11-24T00:40:47.239Z,8.1
2022-11-24T01:00:51.247Z,7.9
2022-11-24T01:10:53.311Z,7.8
2022-11-24T01:30:57.530Z,7.7
2022-11-24T01:40:59.880Z,7.8
2022-11-24T01:51:01.678Z,7.7
2022-11-24T02:01:03.857Z,7.7
2022-11-24T02:11:05.824Z,7.7
2022-11-24T02:41:11.185Z,7.9
2022-11-24T02:51:13.249Z,8
2022-11-24T03:01:15.606Z,8.1
2022-11-24T03:11:17.698Z,8.1
2022-11-24T03:21:20.193Z,7.9
2022-11-24T03:31:22.812Z,8
2022-11-24T03:41:25.199Z,8
2022-11-24T03:51:27.481Z,8.1
2022-11-24T04:01:29.904Z,8.1
2022-11-24T04:11:32.029Z,8.1
2022-11-24T04:21:33.845Z,8.1
2022-11-24T04:31:36.395Z,8.3
2022-11-24T04:41:38.530Z,8.4
2022-11-24T04:51:40.812Z,8.5
2022-11-24T05:01:43.189Z,8.6
2022-11-24T05:11:45.204Z,8.3
2022-11-24T05:21:47.634Z,8
2022-11-24T05:31:49.929Z,7.9
2022-11-24T05:41:52.190Z,7.9
2022-11-24T05:51:53.998Z,7.9
2022-11-24T06:01:56.329Z,8
2022-11-24T06:11:58.340Z,8.1
2022-11-24T06:22:00.745Z,8.2
2022-11-24T06:32:03.244Z,8.4
2022-11-24T06:42:05.160Z,8.6
2022-11-24T06:52:07.151Z,8.7
2022-11-24T07:02:09.730Z,8.7
2022-11-24T07:12:11.715Z,8.8
2022-11-24T07:22:13.646Z,8.7
2022-11-24T07:32:16.133Z,8.6
2022-11-24T07:52:20.543Z,8.6
2022-11-24T08:02:22.480Z,8.6
2022-11-24T08:12:24.775Z,8.5
2022-11-24T08:22:27.289Z,8.4
2022-11-24T08:32:29.143Z,8.1
2022-11-24T08:42:31.150Z,8.1
2022-11-24T08:52:32.941Z,8.1
2022-11-24T09:02:34.750Z,8.2
2022-11-24T09:12:36.675Z,8.3
2022-11-24T09:22:38.409Z,8.3
2022-11-24T09:32:40.977Z,8.3
2022-11-24T09:42:43.408Z,8.3
2022-11-24T09:52:45.164Z,8.3
2022-11-24T10:02:47.775Z,8.2
2022-11-24T10:12:49.773Z,8.2
2022-11-24T10:22:52.171Z,8.5
2022-11-24T10:32:54.752Z,8.6
2022-11-24T10:42:57.341Z,8.7
2022-11-24T10:52:59.435Z,8.7
2022-11-24T11:03:02.110Z,8.7
2022-11-24T11:13:04.570Z,8.9
2022-11-24T11:23:07.047Z,9.1
2022-11-24T11:43:11.327Z,9.6
2022-11-24T11:53:13.582Z,9.9
2022-11-24T12:03:16.261Z,9.9
2022-11-24T12:13:18.103Z,9.8
2022-11-24T12:23:20.308Z,9.7
2022-11-24T12:33:22.594Z,10
2022-11-24T12:43:24.303Z,9.9
2022-11-24T12:53:26.617Z,10
2022-11-24T13:13:31.239Z,10.4
2022-11-24T13:23:33.820Z,10.2
2022-11-24T13:33:35.918Z,10.6
2022-11-24T13:43:38.406Z,10.6
2022-11-24T13:53:40.309Z,10.4
2022-11-24T14:03:47.504Z,10.4
2022-11-24T14:13:44.371Z,10.7
2022-11-24T14:23:46.488Z,10.5
2022-11-24T14:33:48.611Z,10.2
2022-11-24T14:43:50.463Z,10.1
2022-11-24T14:53:52.595Z,9.8
2022-11-24T15:03:54.757Z,9.7
2022-11-24T15:13:57.345Z,9.5
2022-11-24T15:23:59.417Z,9.4
2022-11-24T15:34:01.718Z,9.3
2022-11-24T15:44:03.901Z,9.2
2022-11-24T15:54:06.174Z,9
2022-11-24T16:04:08.232Z,8.6
2022-11-24T16:14:10.361Z,8.5
2022-11-24T16:24:12.709Z,8.5
2022-11-24T16:34:14.787Z,8.3
2022-11-24T16:44:16.511Z,8.1
2022-11-24T16:54:18.268Z,7.9
2022-11-24T17:04:20.724Z,7.9
2022-11-24T17:14:23.299Z,7.9
2022-11-24T17:24:25.637Z,7.8
2022-11-24T17:34:28.294Z,7.6
2022-11-24T17:44:30.729Z,7.9
2022-11-24T17:54:46.214Z,8.1
2022-11-24T18:04:35.468Z,8
2022-11-24T18:14:37.442Z,8
2022-11-24T18:24:39.490Z,8.1
2022-11-24T18:34:41.718Z,8
2022-11-24T18:44:44.169Z,7.9
2022-11-24T18:54:46.826Z,7.8
2022-11-24T19:04:49.253Z,7.6
2022-11-24T19:14:51.827Z,7.6
2022-11-24T19:24:53.686Z,7.6
2022-11-24T19:34:55.515Z,7.6
2022-11-24T19:44:57.647Z,7.6
2022-11-24T19:54:59.561Z,7.5
2022-11-24T20:05:02.059Z,7.4
2022-11-24T20:05:24.005Z,7.4
2022-11-24T20:15:10.969Z,7.4
2022-11-24T20:25:13.162Z,7.6
2022-11-24T20:35:18.145Z,7.6
2022-11-24T20:45:16.515Z,7.5
2022-11-24T20:55:18.811Z,7.2
2022-11-24T21:05:20.560Z,7.2
2022-11-24T21:15:22.382Z,7.1
2022-11-24T21:25:24.185Z,7
2022-11-24T21:45:28.507Z,6.7
2022-11-24T21:55:30.952Z,6.6
2022-11-24T22:05:33.504Z,6.7
2022-11-24T22:15:35.198Z,7.3
2022-11-24T22:25:36.880Z,7.1
2022-11-24T22:35:38.792Z,7.6
2022-11-24T22:45:40.544Z,7.4
2022-11-24T22:55:42.742Z,7.3
2022-11-24T23:05:44.542Z,7.2
2022-11-24T23:15:46.580Z,7.3
2022-11-24T23:25:48.971Z,7.4
2022-11-24T23:35:50.795Z,7.4
2022-11-24T23:45:53.329Z,7.2
